createdAt,value
2022-11-01T00:00:19.084Z,10.60
2022-11-01T00:05:21.240Z,10.60
2022-11-01T00:10:23.069Z,10.60
2022-11-01T00:15:24.905Z,10.60
2022-11-01T00:20:26.989Z,10.60
2022-11-01T00:25:28.901Z,10.60
2022-11-01T00:30:32.057Z,10.60
2022-11-01T00:35:34.459Z,10.60
2022-11-01T00:40:36.504Z,10.60
2022-11-01T00:45:38.564Z,10.60
2022-11-01T00:50:40.936Z,10.60
2022-11-01T00:55:42.884Z,10.60
2022-11-01T01:00:44.989Z,10.60
2022-11-01T01:05:50.421Z,10.60
2022-11-01T01:10:52.456Z,10.60
2022-11-01T01:15:54.320Z,10.60
2022-11-01T01:21:02.845Z,10.60
2022-11-01T01:26:09.028Z,10.60
2022-11-01T01:31:10.861Z,10.60
2022-11-01T01:36:13.224Z,10.60
2022-11-01T01:41:33.441Z,10.50
2022-11-01T01:46:35.371Z,10.50
2022-11-01T01:51:37.279Z,10.50
2022-11-01T01:56:39.173Z,10.50
2022-11-01T02:01:41.557Z,10.50
2022-11-01T02:06:43.455Z,10.50
2022-11-01T02:11:45.389Z,10.50
2022-11-01T02:16:53.844Z,10.50
2022-11-01T02:22:02.089Z,10.50
2022-11-01T02:27:20.644Z,10.50
2022-11-01T02:32:25.488Z,10.50
2022-11-01T02:37:34.718Z,10.60
2022-11-01T02:42:42.235Z,10.60
2022-11-01T02:47:44.063Z,10.60
2022-11-01T02:52:46.486Z,10.60
2022-11-01T02:57:49.280Z,10.70
2022-11-01T03:02:57.011Z,10.70
2022-11-01T03:08:06.289Z,10.70
2022-11-01T03:13:32.575Z,10.70
2022-11-01T03:18:36.717Z,10.70
2022-11-01T03:23:41.667Z,10.70
2022-11-01T03:28:46.816Z,10.70
2022-11-01T03:33:52.282Z,10.70
2022-11-01T03:38:58.698Z,10.70
2022-11-01T03:44:00.714Z,10.70
2022-11-01T03:49:02.584Z,10.70
2022-11-01T03:54:06.502Z,10.70
2022-11-01T03:59:10.095Z,10.70
2022-11-01T04:04:12.077Z,10.70
2022-11-01T04:09:13.972Z,10.70
2022-11-01T04:14:34.159Z,10.70
2022-11-01T04:19:54.633Z,10.80
2022-11-01T04:24:56.481Z,10.80
2022-11-01T04:29:58.311Z,10.80
2022-11-01T04:35:00.224Z,10.80
2022-11-01T04:40:02.113Z,10.80
2022-11-01T04:45:05.849Z,10.80
2022-11-01T04:50:07.911Z,10.80
2022-11-01T04:55:09.831Z,10.80
2022-11-01T05:00:12.649Z,10.80
2022-11-01T05:05:15.056Z,10.80
2022-11-01T05:10:16.940Z,10.80
2022-11-01T05:15:18.853Z,10.90
2022-11-01T05:20:20.736Z,10.80
2022-11-01T05:25:22.831Z,10.80
2022-11-01T05:30:24.677Z,10.80
2022-11-01T05:35:28.223Z,10.90
2022-11-01T05:40:30.516Z,10.90
2022-11-01T05:45:32.339Z,10.90
2022-11-01T05:50:34.194Z,10.90
2022-11-01T05:55:36.795Z,10.90
2022-11-01T06:00:38.684Z,10.90
2022-11-01T06:05:40.659Z,10.90
2022-11-01T06:10:42.532Z,10.90
2022-11-01T06:15:44.944Z,10.80
2022-11-01T06:20:46.849Z,10.80
2022-11-01T06:25:48.928Z,10.90
2022-11-01T06:30:50.903Z,10.90
2022-11-01T06:35:53.876Z,10.90
2022-11-01T06:40:55.788Z,10.90
2022-11-01T06:46:01.126Z,10.90
2022-11-01T06:51:03.894Z,10.90
2022-11-01T06:56:06.459Z,10.90
2022-11-01T07:01:08.486Z,10.90
2022-11-01T07:06:10.613Z,10.90
2022-11-01T07:11:13.528Z,10.90
2022-11-01T07:16:15.417Z,10.90
2022-11-01T07:21:17.541Z,10.90
2022-11-01T07:26:19.849Z,10.90
2022-11-01T07:31:21.865Z,10.90
2022-11-01T07:36:23.744Z,11.00
2022-11-01T07:41:25.684Z,11.00
2022-11-01T07:46:29.085Z,11.00
2022-11-01T07:51:30.964Z,11.00
2022-11-01T07:56:34.219Z,11.00
2022-11-01T08:01:37.203Z,11.00
2022-11-01T08:06:39.278Z,11.00
2022-11-01T08:11:41.120Z,11.00
2022-11-01T08:16:43.036Z,11.10
2022-11-01T08:21:45.628Z,11.10
2022-11-01T08:26:47.633Z,11.10
2022-11-01T08:31:49.487Z,11.20
2022-11-01T08:36:51.359Z,11.20
2022-11-01T08:41:53.259Z,11.30
2022-11-01T08:46:55.675Z,11.30
2022-11-01T08:51:57.642Z,11.20
2022-11-01T08:57:00.292Z,11.30
2022-11-01T09:02:02.301Z,11.30
2022-11-01T09:07:04.558Z,11.40
2022-11-01T09:12:10.971Z,11.50
2022-11-01T09:17:16.023Z,11.50
2022-11-01T09:22:17.896Z,11.50
2022-11-01T09:27:20.131Z,11.60
2022-11-01T09:32:22.004Z,11.60
2022-11-01T09:37:24.069Z,11.60
2022-11-01T09:42:32.675Z,11.60
2022-11-01T09:47:35.707Z,11.70
2022-11-01T09:52:37.980Z,11.70
2022-11-01T09:57:45.980Z,11.60
2022-11-01T10:03:22.004Z,11.70
2022-11-01T10:08:30.708Z,11.70
2022-11-01T10:13:48.486Z,11.80
2022-11-01T10:19:14.907Z,11.80
2022-11-01T10:24:38.613Z,11.80
2022-11-01T10:29:50.435Z,11.90
2022-11-01T10:34:53.323Z,11.90
2022-11-01T10:40:12.809Z,12.00
2022-11-01T10:45:19.243Z,12.00
2022-11-01T10:56:25.129Z,11.90
2022-11-01T11:01:28.402Z,11.90
2022-11-01T11:06:37.361Z,12.00
2022-11-01T11:11:42.195Z,12.00
2022-11-01T11:16:51.880Z,12.00
2022-11-01T11:21:54.085Z,12.00
2022-11-01T11:26:59.069Z,12.10
2022-11-01T11:32:01.604Z,12.10
2022-11-01T11:37:06.143Z,12.20
2022-11-01T11:42:16.654Z,12.20
2022-11-01T11:47:20.043Z,12.30
2022-11-01T11:52:28.398Z,12.40
2022-11-01T11:57:30.760Z,12.40
2022-11-01T12:02:37.996Z,12.40
2022-11-01T12:07:51.565Z,12.40
2022-11-01T12:12:54.286Z,12.40
2022-11-01T12:17:56.693Z,12.40
2022-11-01T12:23:17.472Z,12.40
2022-11-01T12:28:24.953Z,12.50
2022-11-01T12:33:38.443Z,12.50
2022-11-01T12:38:47.235Z,12.60
2022-11-01T12:43:49.046Z,12.60
2022-11-01T12:48:55.796Z,12.60
2022-11-01T12:53:59.533Z,12.70
2022-11-01T12:59:01.449Z,12.70
2022-11-01T13:04:18.948Z,12.70
2022-11-01T13:09:48.122Z,12.70
2022-11-01T13:15:06.076Z,12.80
2022-11-01T13:20:54.330Z,12.80
2022-11-01T13:26:20.660Z,12.80
2022-11-01T13:31:30.720Z,12.80
2022-11-01T13:37:01.448Z,12.70
2022-11-01T13:42:13.717Z,12.70
2022-11-01T13:47:41.688Z,12.70
2022-11-01T13:52:51.532Z,12.70
2022-11-01T13:57:54.896Z,12.70
2022-11-01T14:02:58.136Z,12.70
2022-11-01T14:08:03.517Z,12.80
2022-11-01T14:13:09.827Z,12.80
2022-11-01T14:18:13.089Z,12.80
2022-11-01T14:23:29.956Z,12.70
2022-11-01T14:28:31.886Z,12.60
2022-11-01T14:33:33.834Z,12.50
2022-11-01T14:38:44.804Z,12.40
2022-11-01T14:43:52.426Z,12.40
2022-11-01T14:49:05.660Z,12.30
2022-11-01T14:54:29.251Z,12.20
2022-11-01T14:59:35.132Z,12.10
2022-11-01T15:04:42.637Z,11.90
2022-11-01T15:09:56.136Z,11.90
2022-11-01T15:15:00.339Z,11.70
2022-11-01T15:20:13.217Z,11.60
2022-11-01T15:25:28.644Z,11.50
2022-11-01T15:30:32.757Z,11.40
2022-11-01T15:35:34.690Z,11.20
2022-11-01T15:40:40.029Z,11.10
2022-11-01T15:45:52.891Z,11.00
2022-11-01T15:51:12.331Z,10.90
2022-11-01T15:56:38.704Z,10.80
2022-11-01T16:01:50.385Z,10.70
2022-11-01T16:07:02.619Z,10.70
2022-11-01T16:12:22.690Z,10.50
2022-11-01T16:17:33.675Z,10.50
2022-11-01T16:22:42.121Z,10.50
2022-11-01T16:27:57.426Z,10.50
2022-11-01T16:33:09.198Z,10.40
2022-11-01T16:38:37.301Z,10.40
2022-11-01T16:43:39.468Z,10.40
2022-11-01T16:48:52.152Z,10.40
2022-11-01T16:54:00.244Z,10.40
2022-11-01T16:59:24.896Z,10.40
2022-11-01T17:04:28.367Z,10.40
2022-11-01T17:09:31.435Z,10.40
2022-11-01T17:14:35.348Z,10.40
2022-11-01T17:19:44.237Z,10.40
2022-11-01T17:24:46.300Z,10.40
2022-11-01T17:29:48.304Z,10.40
2022-11-01T17:34:50.187Z,10.30
2022-11-01T17:39:52.101Z,10.30
2022-11-01T17:44:53.996Z,10.30
2022-11-01T17:49:55.849Z,10.30
2022-11-01T17:54:57.778Z,10.20
2022-11-01T18:00:00.523Z,10.20
2022-11-01T18:05:02.376Z,10.20
2022-11-01T18:10:13.273Z,10.20
2022-11-01T18:15:40.364Z,10.20
2022-11-01T18:20:50.616Z,10.20
2022-11-01T18:25:52.549Z,10.10
2022-11-01T18:30:57.234Z,10.10
2022-11-01T18:36:12.340Z,10.00
2022-11-01T18:41:19.720Z,10.00
2022-11-01T18:46:26.185Z,10.00
2022-11-01T18:51:33.670Z,10.00
2022-11-01T18:56:38.396Z,10.00
2022-11-01T19:01:40.942Z,10.00
2022-11-01T19:06:42.934Z,10.00
2022-11-01T19:11:44.812Z,10.00
2022-11-01T19:16:46.729Z,10.00
2022-11-01T19:21:48.840Z,10.00
2022-11-01T19:26:50.822Z,10.00
2022-11-01T19:31:58.251Z,10.00
2022-11-01T19:37:05.083Z,9.90
2022-11-01T19:42:31.507Z,9.90
2022-11-01T19:47:44.413Z,9.90
2022-11-01T19:52:47.692Z,9.90
2022-11-01T19:57:49.810Z,9.90
2022-11-01T20:02:53.496Z,9.80
2022-11-01T20:08:06.188Z,9.90
2022-11-01T20:13:08.033Z,9.90
2022-11-01T20:18:11.143Z,9.90
2022-11-01T20:23:25.978Z,9.90
2022-11-01T20:28:28.587Z,10.00
2022-11-01T20:33:30.435Z,10.00
2022-11-01T20:38:32.369Z,10.00
2022-11-01T20:43:34.591Z,10.00
2022-11-01T20:48:36.689Z,10.00
2022-11-01T20:53:38.535Z,10.10
2022-11-01T20:58:40.618Z,10.00
2022-11-01T21:03:43.407Z,10.00
2022-11-01T21:08:49.009Z,10.00
2022-11-01T21:13:52.337Z,9.90
2022-11-01T21:18:55.319Z,9.90
2022-11-01T21:23:57.672Z,9.90
2022-11-01T21:29:06.560Z,10.00
2022-11-01T21:34:11.347Z,10.00
2022-11-01T21:39:20.009Z,10.00
2022-11-01T21:44:24.103Z,10.00
2022-11-01T21:49:31.317Z,10.00
2022-11-01T21:54:34.485Z,10.00
2022-11-01T21:59:36.680Z,10.10
2022-11-01T22:04:38.652Z,10.10
2022-11-01T22:09:40.584Z,10.00
2022-11-01T22:14:42.488Z,10.10
2022-11-01T22:19:44.345Z,10.10
2022-11-01T22:24:46.555Z,10.10
2022-11-01T22:29:48.480Z,10.10
2022-11-01T22:34:50.319Z,10.10
2022-11-01T22:39:53.206Z,10.10
2022-11-01T22:44:55.820Z,10.10
2022-11-01T22:50:01.462Z,10.10
2022-11-01T22:55:15.272Z,10.10
2022-11-01T23:00:36.292Z,10.20
2022-11-01T23:05:38.284Z,10.10
2022-11-01T23:10:40.324Z,10.10
2022-11-01T23:15:42.191Z,10.10
2022-11-01T23:20:45.566Z,10.10
2022-11-01T23:25:47.844Z,10.20
2022-11-01T23:30:49.922Z,10.10
2022-11-01T23:35:57.096Z,10.20
2022-11-01T23:40:58.979Z,10.10
2022-11-01T23:46:01.663Z,10.10
2022-11-01T23:51:04.004Z,10.10
2022-11-01T23:56:07.551Z,10.10
